createdAt,value
2023-09-19T02:22:08.285Z,19.00
2023-09-19T02:32:54.628Z,19.20
2023-09-19T02:43:11.952Z,19.30
2023-09-19T04:01:16.847Z,19.20
2023-09-19T04:34:39.999Z,18.90
2023-09-19T04:56:11.639Z,18.70
2023-09-19T05:06:14.546Z,18.50
2023-09-19T05:16:17.480Z,18.40
2023-09-19T05:26:19.852Z,18.40
2023-09-19T05:36:22.032Z,18.10
2023-09-19T05:46:24.315Z,18.00
2023-09-19T05:56:26.833Z,17.80
2023-09-19T06:06:28.859Z,17.60
2023-09-19T06:16:31.806Z,17.30
2023-09-19T06:26:33.873Z,17.20
2023-09-19T06:36:35.753Z,17.30
2023-09-19T06:46:37.733Z,17.60
2023-09-19T06:56:39.860Z,17.80
2023-09-19T07:06:44.268Z,18.00
2023-09-19T07:16:46.367Z,18.00
2023-09-19T07:26:48.223Z,18.10
2023-09-19T07:36:50.155Z,18.10
2023-09-19T07:46:52.120Z,18.00
2023-09-19T07:56:54.046Z,18.10
2023-09-19T08:06:56.196Z,18.20
2023-09-19T08:16:59.396Z,18.40
2023-09-19T08:27:01.443Z,18.50
2023-09-19T08:37:03.585Z,18.60
2023-09-19T08:47:12.257Z,18.70
2023-09-19T08:57:18.963Z,19.00
2023-09-19T09:07:22.606Z,19.00
2023-09-19T09:17:25.340Z,19.00
2023-09-19T09:27:27.525Z,19.20
2023-09-19T09:37:30.366Z,19.20
2023-09-19T09:47:50.793Z,19.20
2023-09-19T09:58:19.005Z,19.30
2023-09-19T10:08:21.044Z,19.40
2023-09-19T10:18:24.831Z,19.40
2023-09-19T10:28:29.403Z,19.40
2023-09-19T10:38:34.091Z,19.20
2023-09-19T10:48:36.641Z,18.70
2023-09-19T10:58:40.897Z,18.70
2023-09-19T11:08:59.670Z,18.80
2023-09-19T11:19:01.482Z,19.00
2023-09-19T11:29:30.389Z,19.00
2023-09-19T11:39:32.362Z,19.70
2023-09-19T11:49:34.418Z,19.80
2023-09-19T11:59:39.903Z,20.00
2023-09-19T12:09:46.176Z,20.20
2023-09-19T12:19:57.643Z,20.40
2023-09-19T12:30:02.739Z,20.80
2023-09-19T12:40:11.010Z,21.00
2023-09-19T12:50:16.885Z,21.20
2023-09-19T13:00:18.836Z,21.30
2023-09-19T13:10:20.781Z,21.40
2023-09-19T13:20:55.184Z,21.70
2023-09-19T13:30:57.145Z,21.70
2023-09-19T13:41:00.386Z,21.90
2023-09-19T13:51:03.903Z,21.70
2023-09-19T14:01:05.857Z,21.60
2023-09-19T14:11:09.340Z,21.10
2023-09-19T14:21:11.201Z,20.70
2023-09-19T14:31:13.129Z,20.40
2023-09-19T14:41:15.372Z,18.00
2023-09-19T14:51:20.659Z,17.30
2023-09-19T15:01:24.782Z,17.90
2023-09-19T15:11:26.627Z,18.30
2023-09-19T15:21:28.806Z,18.10
2023-09-19T15:31:30.828Z,18.10
2023-09-19T15:41:35.364Z,18.20
2023-09-19T15:51:40.750Z,18.30
2023-09-19T16:01:44.882Z,18.30
2023-09-19T16:11:49.966Z,18.30
2023-09-19T16:21:52.002Z,18.20
2023-09-19T16:31:54.280Z,18.10
2023-09-19T16:41:56.225Z,18.00
2023-09-19T16:51:59.550Z,17.80
2023-09-19T17:02:01.877Z,17.50
2023-09-19T17:12:04.057Z,17.20
2023-09-19T17:22:05.973Z,17.10
2023-09-19T17:32:11.857Z,16.90
2023-09-19T17:42:13.924Z,16.80
2023-09-19T17:52:15.787Z,16.40
2023-09-19T18:02:17.842Z,16.50
2023-09-19T18:12:19.775Z,16.20
2023-09-19T18:22:21.668Z,16.10
2023-09-19T18:32:23.718Z,16.10
2023-09-19T18:42:25.702Z,16.10
2023-09-19T18:52:31.081Z,15.80
2023-09-19T19:02:40.070Z,15.70
2023-09-19T19:12:42.011Z,15.70
2023-09-19T19:22:44.191Z,15.50
2023-09-19T19:32:46.387Z,15.10
2023-09-19T19:42:48.361Z,15.20
2023-09-19T19:52:58.059Z,15.20
2023-09-19T20:03:00.585Z,15.00
2023-09-19T20:13:03.857Z,15.00
2023-09-19T20:23:06.761Z,14.90
2023-09-19T20:33:11.952Z,14.80
2023-09-19T20:43:13.889Z,14.80
2023-09-19T20:53:16.060Z,14.70
2023-09-19T21:03:18.109Z,14.60
2023-09-19T21:13:20.571Z,14.60
2023-09-19T21:23:24.174Z,14.60
2023-09-19T21:33:36.955Z,14.60
2023-09-19T21:43:39.521Z,14.70
2023-09-19T21:53:42.334Z,14.80
2023-09-19T22:03:47.302Z,14.80
2023-09-19T22:13:50.162Z,14.90
2023-09-19T22:23:52.547Z,14.80
2023-09-19T22:33:56.415Z,14.80
2023-09-19T22:43:58.954Z,14.70
2023-09-19T22:54:00.939Z,14.60
2023-09-19T23:04:04.236Z,14.50
2023-09-19T23:14:06.465Z,14.50
2023-09-19T23:24:08.576Z,14.40
2023-09-19T23:34:13.168Z,14.30
2023-09-19T23:44:15.253Z,14.30
2023-09-19T23:54:22.745Z,14.40
